Time;durP1;ratioP1;P1;durP2;ratioP2;P2;SDS_P1;SDS_P2;PMS_P1;PMS_P2;Temp;Humidity;BMP_temperature;BMP_pressure;BME280_temperature;BME280_humidity;BME280_pressure;Samples;Min_cycle;Max_cycle;Signal;HPM_P1;HPM_P2
2022/03/06 00:00:41;;;;;;;;;;;-0.20;99.90;;;;;;5150754;27;19968;-69
2022/03/06 00:03:07;;;;;;;;;;;1.30;99.90;;;;;;5116369;28;19930;-69
2022/03/06 00:05:32;;;;;;;;;;;-1.60;99.90;;;;;;5134769;27;19932;-69
2022/03/06 00:07:59;;;;;;;;;;;-0.20;99.90;;;;;;5119829;27;19923;-71
2022/03/06 00:10:25;;;;;;;;;;;-0.20;99.90;;;;;;5138421;27;19927;-70
2022/03/06 00:12:50;;;;;;;;;;;0.00;99.90;;;;;;5120315;27;19930;-69
2022/03/06 00:15:16;;;;;;;;;;;-0.20;99.90;;;;;;5154575;27;19923;-69
2022/03/06 00:17:42;;;;;;;;;;;-0.20;99.90;;;;;;5119850;27;20014;-69
2022/03/06 00:20:08;;;;;;;;;;;1.30;99.90;;;;;;5154003;27;20017;-73
2022/03/06 00:22:35;;;;;;;;;;;-0.10;99.90;;;;;;5138217;27;19924;-71
2022/03/06 00:25:00;;;;;;;;;;;-0.10;99.90;;;;;;5120100;27;20010;-74
2022/03/06 00:27:26;;;;;;;;;;;-0.10;99.90;;;;;;5138058;27;20031;-72
2022/03/06 00:29:52;;;;;;;;;;;-0.10;99.90;;;;;;5154381;27;19927;-69
2022/03/06 00:32:17;;;;;;;;;;;-0.40;99.90;;;;;;5137917;27;19930;-70
2022/03/06 00:34:43;;;;;;;;;;;0.60;99.90;;;;;;5119698;27;19971;-69
2022/03/06 00:37:08;;;;;;;;;;;1.70;99.90;;;;;;5119636;27;20382;-69
2022/03/06 00:39:34;;;;;;;;;;;-0.10;99.90;;;;;;5154070;27;19928;-72
2022/03/06 00:42:00;;;;;;;;;;;-1.70;99.90;;;;;;5137893;27;20279;-69
2022/03/06 00:44:26;;;;;;;;;;;1.60;99.90;;;;;;5137875;27;20000;-71
2022/03/06 00:46:51;;;;;;;;;;;0.00;99.90;;;;;;5137724;27;20018;-71
2022/03/06 00:49:17;;;;;;;;;;;1.80;99.90;;;;;;5100267;27;19928;-69
2022/03/06 00:51:43;;;;;;;;;;;0.80;99.90;;;;;;5107725;28;19931;-71
2022/03/06 00:54:08;;;;;;;;;;;0.00;99.90;;;;;;5133541;27;19971;-69
2022/03/06 00:56:34;;;;;;;;;;;1.40;99.90;;;;;;5153892;27;20426;-70
2022/03/06 00:58:59;;;;;;;;;;;1.20;99.90;;;;;;5137380;27;19933;-71
2022/03/06 01:01:25;;;;;;;;;;;1.20;99.90;;;;;;5119051;27;19930;-69
2022/03/06 01:03:50;;;;;;;;;;;0.00;99.90;;;;;;5137370;27;19923;-70
2022/03/06 01:06:16;;;;;;;;;;;0.80;99.90;;;;;;5137105;27;20095;-69
2022/03/06 01:08:41;;;;;;;;;;;2.20;99.90;;;;;;5137418;27;19928;-70
2022/03/06 01:11:07;;;;;;;;;;;0.00;99.90;;;;;;5137372;27;20217;-71
2022/03/06 01:13:33;;;;;;;;;;;1.80;99.90;;;;;;5118865;27;19927;-70
2022/03/06 01:15:58;;;;;;;;;;;0.00;99.90;;;;;;5137105;27;20006;-71
2022/03/06 01:18:24;;;;;;;;;;;-0.30;99.90;;;;;;5151676;27;20374;-69
2022/03/06 01:20:50;;;;;;;;;;;2.50;99.90;;;;;;5137198;27;19931;-69
2022/03/06 01:23:15;;;;;;;;;;;1.60;99.90;;;;;;5152565;27;19923;-69
2022/03/06 01:25:41;;;;;;;;;;;0.80;99.90;;;;;;5153188;27;19923;-70
2022/03/06 01:28:07;;;;;;;;;;;1.30;99.90;;;;;;5136989;27;19977;-68
2022/03/06 01:30:33;;;;;;;;;;;0.10;99.90;;;;;;5118873;27;20382;-71
2022/03/06 01:33:00;;;;;;;;;;;0.10;99.90;;;;;;5136767;27;19931;-70
2022/03/06 01:35:25;;;;;;;;;;;0.20;99.90;;;;;;5118325;27;20072;-70
2022/03/06 01:37:51;;;;;;;;;;;0.00;99.90;;;;;;5136518;27;20030;-69
2022/03/06 01:40:19;;;;;;;;;;;1.30;99.90;;;;;;5152999;27;19923;-69
2022/03/06 01:42:47;;;;;;;;;;;0.20;99.90;;;;;;5136670;27;19984;-72
2022/03/06 01:45:13;;;;;;;;;;;0.20;99.90;;;;;;5118581;27;19923;-69
2022/03/06 01:47:42;;;;;;;;;;;1.80;99.90;;;;;;5136658;27;20068;-70
2022/03/06 01:50:12;;;;;;;;;;;0.20;99.90;;;;;;5136392;27;20286;-70
2022/03/06 01:52:37;;;;;;;;;;;2.10;99.90;;;;;;5136251;27;19928;-69
2022/03/06 01:55:03;;;;;;;;;;;0.20;99.90;;;;;;5136515;27;19923;-73
2022/03/06 01:57:29;;;;;;;;;;;0.30;99.90;;;;;;5136484;27;20483;-70
2022/03/06 01:59:54;;;;;;;;;;;1.70;99.90;;;;;;5118031;27;19923;-70
2022/03/06 02:02:20;;;;;;;;;;;0.30;99.90;;;;;;5136245;27;19947;-69
2022/03/06 02:04:45;;;;;;;;;;;2.30;99.90;;;;;;5101180;27;19969;-70
2022/03/06 02:07:11;;;;;;;;;;;2.00;99.90;;;;;;5135916;27;20350;-70
2022/03/06 02:09:37;;;;;;;;;;;0.40;99.90;;;;;;5136175;27;19931;-71
2022/03/06 02:14:47;;;;;;;;;;;0.40;99.90;;;;;;5152222;27;20425;-70
2022/03/06 02:17:13;;;;;;;;;;;2.50;99.90;;;;;;5117943;27;19980;-69
2022/03/06 02:19:50;;;;;;;;;;;2.10;99.90;;;;;;5135594;27;19923;-69
2022/03/06 02:22:16;;;;;;;;;;;0.40;99.90;;;;;;5135667;27;20353;-74
2022/03/06 02:24:41;;;;;;;;;;;1.80;99.90;;;;;;5152159;27;19959;-69
2022/03/06 02:27:07;;;;;;;;;;;1.60;99.90;;;;;;5135762;27;19928;-69
2022/03/06 02:29:32;;;;;;;;;;;0.40;99.90;;;;;;5135281;27;19931;-73
2022/03/06 02:32:00;;;;;;;;;;;1.70;99.90;;;;;;5135780;27;20297;-70
2022/03/06 02:34:26;;;;;;;;;;;-0.30;99.90;;;;;;5116899;27;20290;-73
2022/03/06 02:36:51;;;;;;;;;;;0.30;99.90;;;;;;5117497;27;20423;-69
2022/03/06 02:39:17;;;;;;;;;;;0.40;99.90;;;;;;5135302;27;19927;-69
2022/03/06 02:41:42;;;;;;;;;;;1.30;99.90;;;;;;5151908;27;19923;-72
2022/03/06 02:44:08;;;;;;;;;;;2.60;99.90;;;;;;5135547;27;19930;-69
2022/03/06 02:46:34;;;;;;;;;;;0.50;99.90;;;;;;5151544;27;20294;-69
2022/03/06 02:48:59;;;;;;;;;;;0.50;99.90;;;;;;5151186;27;19923;-70
2022/03/06 02:51:25;;;;;;;;;;;0.50;99.90;;;;;;5134964;27;19931;-69
2022/03/06 02:53:51;;;;;;;;;;;0.20;99.90;;;;;;5151744;27;19923;-70
2022/03/06 02:56:16;;;;;;;;;;;0.50;99.90;;;;;;5135299;27;20116;-70
2022/03/06 02:58:42;;;;;;;;;;;0.50;99.90;;;;;;5134878;27;20019;-69
2022/03/06 03:01:08;;;;;;;;;;;0.50;99.90;;;;;;5135159;27;19970;-71
2022/03/06 03:03:43;;;;;;;;;;;0.50;99.90;;;;;;5135087;27;19968;-71
2022/03/06 03:06:09;;;;;;;;;;;-0.10;99.90;;;;;;5134939;27;20336;-69
2022/03/06 03:08:34;;;;;;;;;;;2.00;99.90;;;;;;5134664;27;19927;-69
2022/03/06 03:11:00;;;;;;;;;;;0.60;99.90;;;;;;5151434;27;19927;-70
2022/03/06 03:13:26;;;;;;;;;;;1.20;99.90;;;;;;5116812;27;19973;-70
2022/03/06 03:15:52;;;;;;;;;;;0.60;99.90;;;;;;5151381;27;19929;-70
2022/03/06 03:18:18;;;;;;;;;;;0.70;99.90;;;;;;5134942;27;19923;-70
2022/03/06 03:20:44;;;;;;;;;;;0.50;99.90;;;;;;5150723;27;19923;-70
2022/03/06 03:23:09;;;;;;;;;;;1.70;99.90;;;;;;5134958;27;19928;-71
2022/03/06 03:25:35;;;;;;;;;;;0.60;99.90;;;;;;5134833;27;19975;-69
2022/03/06 03:28:00;;;;;;;;;;;2.80;99.90;;;;;;5134801;27;19974;-70
2022/03/06 03:30:26;;;;;;;;;;;0.60;99.90;;;;;;5134877;27;20381;-72
2022/03/06 03:32:51;;;;;;;;;;;0.60;99.90;;;;;;5116076;28;19927;-74
2022/03/06 03:35:17;;;;;;;;;;;0.60;99.90;;;;;;5134509;28;20023;-70
2022/03/06 03:37:43;;;;;;;;;;;1.10;99.90;;;;;;5116467;28;19930;-73
2022/03/06 03:40:09;;;;;;;;;;;1.30;99.90;;;;;;5150840;27;19924;-69
2022/03/06 03:42:35;;;;;;;;;;;-0.10;99.90;;;;;;5138953;27;20366;-69
2022/03/06 03:45:01;;;;;;;;;;;0.50;99.90;;;;;;5139034;27;19989;-70
2022/03/06 03:47:26;;;;;;;;;;;0.50;99.90;;;;;;5103233;27;19927;-70
2022/03/06 03:49:52;;;;;;;;;;;2.70;99.90;;;;;;5138804;27;19924;-73
2022/03/06 03:52:17;;;;;;;;;;;0.50;99.90;;;;;;5138669;27;19931;-74
2022/03/06 03:54:43;;;;;;;;;;;0.50;99.90;;;;;;5155201;27;19972;-70
2022/03/06 03:57:08;;;;;;;;;;;0.40;99.90;;;;;;5138723;27;19969;-70
2022/03/06 03:59:34;;;;;;;;;;;0.40;99.90;;;;;;5154787;27;19924;-75
2022/03/06 04:01:59;;;;;;;;;;;0.40;99.90;;;;;;5154888;27;19976;-71
2022/03/06 04:04:26;;;;;;;;;;;0.00;99.90;;;;;;5154891;27;19923;-72
2022/03/06 04:06:51;;;;;;;;;;;0.30;99.90;;;;;;5135699;27;20290;-69
2022/03/06 04:09:17;;;;;;;;;;;0.30;99.90;;;;;;5117995;28;19931;-75
2022/03/06 04:11:42;;;;;;;;;;;2.30;99.90;;;;;;5116952;28;19945;-71
2022/03/06 04:14:08;;;;;;;;;;;2.70;99.90;;;;;;5117771;28;19931;-72
2022/03/06 04:16:34;;;;;;;;;;;2.40;99.90;;;;;;5116828;28;19931;-72
2022/03/06 04:18:59;;;;;;;;;;;0.20;99.90;;;;;;5117542;28;19927;-71
2022/03/06 04:21:25;;;;;;;;;;;0.10;99.90;;;;;;5117439;28;19971;-72
2022/03/06 04:23:50;;;;;;;;;;;0.10;99.90;;;;;;5117426;28;19923;-70
2022/03/06 04:26:16;;;;;;;;;;;0.10;99.90;;;;;;5116379;28;19928;-73
2022/03/06 04:28:41;;;;;;;;;;;0.10;99.90;;;;;;5116659;28;20335;-70
2022/03/06 04:31:07;;;;;;;;;;;0.10;99.90;;;;;;5116479;28;19988;-70
2022/03/06 04:33:32;;;;;;;;;;;2.10;99.90;;;;;;5099473;28;19928;-73
2022/03/06 04:35:58;;;;;;;;;;;1.20;99.90;;;;;;5117271;28;19928;-73
2022/03/06 04:38:23;;;;;;;;;;;0.00;99.90;;;;;;5117054;28;19923;-69
2022/03/06 04:40:49;;;;;;;;;;;1.10;99.90;;;;;;5117398;28;19924;-71
2022/03/06 04:43:14;;;;;;;;;;;0.80;99.90;;;;;;5117282;28;19924;-71
2022/03/06 04:45:40;;;;;;;;;;;-0.10;99.90;;;;;;5117299;28;19924;-72
2022/03/06 04:48:06;;;;;;;;;;;0.20;99.90;;;;;;5098841;28;19924;-69
2022/03/06 04:50:31;;;;;;;;;;;-0.10;99.90;;;;;;5078662;28;19946;-70
2022/03/06 04:52:57;;;;;;;;;;;0.10;99.90;;;;;;5096346;28;19928;-69
2022/03/06 04:55:22;;;;;;;;;;;1.60;99.90;;;;;;5096536;28;20397;-69
2022/03/06 04:57:48;;;;;;;;;;;-0.20;99.90;;;;;;5129932;27;19931;-69
2022/03/06 05:00:15;;;;;;;;;;;-0.20;99.90;;;;;;5096472;28;19924;-74
2022/03/06 05:02:41;;;;;;;;;;;-0.20;99.90;;;;;;5096468;28;20309;-69
2022/03/06 05:05:06;;;;;;;;;;;0.80;99.90;;;;;;5096405;28;20014;-72
2022/03/06 05:07:32;;;;;;;;;;;-0.30;99.90;;;;;;5104543;28;19978;-71
2022/03/06 05:09:58;;;;;;;;;;;-0.30;99.90;;;;;;5116550;28;19924;-69
2022/03/06 05:12:23;;;;;;;;;;;-0.30;99.90;;;;;;5098888;28;20034;-69
2022/03/06 05:14:49;;;;;;;;;;;1.30;99.90;;;;;;5098520;28;20441;-69
2022/03/06 05:17:16;;;;;;;;;;;-0.40;99.90;;;;;;5116696;28;19968;-71
2022/03/06 05:19:41;;;;;;;;;;;0.60;99.90;;;;;;5116492;28;19927;-70
2022/03/06 05:22:07;;;;;;;;;;;-0.40;99.90;;;;;;5131629;27;20041;-69
2022/03/06 05:24:32;;;;;;;;;;;0.60;99.90;;;;;;5098408;28;19928;-69
2022/03/06 05:26:58;;;;;;;;;;;0.60;99.90;;;;;;5116516;28;19976;-70
2022/03/06 05:29:24;;;;;;;;;;;-0.50;99.90;;;;;;5116416;28;19924;-71
2022/03/06 05:31:49;;;;;;;;;;;-0.50;99.90;;;;;;5098461;28;19924;-70
2022/03/06 05:34:15;;;;;;;;;;;-0.50;99.90;;;;;;5116340;28;19989;-70
2022/03/06 05:36:40;;;;;;;;;;;0.60;99.90;;;;;;5116161;28;19924;-69
2022/03/06 05:39:06;;;;;;;;;;;0.90;99.90;;;;;;5115996;28;19931;-70
2022/03/06 05:41:31;;;;;;;;;;;-0.60;99.90;;;;;;5115939;28;19924;-72
2022/03/06 05:43:57;;;;;;;;;;;1.30;99.90;;;;;;5116100;28;19979;-69
2022/03/06 05:46:22;;;;;;;;;;;-0.60;99.90;;;;;;5116108;28;20272;-70
2022/03/06 05:48:48;;;;;;;;;;;-0.80;99.90;;;;;;5097929;28;20014;-71
2022/03/06 05:51:14;;;;;;;;;;;-0.30;99.90;;;;;;5132028;27;20306;-69
2022/03/06 05:53:40;;;;;;;;;;;-0.60;99.90;;;;;;5115856;28;19931;-69
2022/03/06 05:56:05;;;;;;;;;;;-0.60;99.90;;;;;;5115716;28;20272;-70
2022/03/06 05:58:31;;;;;;;;;;;1.00;99.90;;;;;;5115767;28;20039;-69
2022/03/06 06:00:56;;;;;;;;;;;-0.90;99.90;;;;;;5115809;28;19980;-72
2022/03/06 06:03:22;;;;;;;;;;;-0.70;99.90;;;;;;5096809;28;19975;-68
2022/03/06 06:05:48;;;;;;;;;;;-0.70;99.90;;;;;;5131617;27;20027;-71
2022/03/06 06:08:13;;;;;;;;;;;-0.70;99.90;;;;;;5115737;28;20014;-70
2022/03/06 06:10:39;;;;;;;;;;;-0.80;99.90;;;;;;5115399;28;19924;-73
2022/03/06 06:13:06;;;;;;;;;;;-1.90;99.90;;;;;;5115295;28;19927;-70
2022/03/06 06:15:32;;;;;;;;;;;-0.80;99.90;;;;;;5115528;28;19981;-69
2022/03/06 06:17:57;;;;;;;;;;;-0.80;99.90;;;;;;5115460;28;19923;-71
2022/03/06 06:20:23;;;;;;;;;;;-0.80;99.90;;;;;;5096823;28;19924;-69
2022/03/06 06:22:53;;;;;;;;;;;-0.70;99.90;;;;;;5115199;28;20010;-69
2022/03/06 06:25:18;;;;;;;;;;;0.10;99.90;;;;;;5115110;28;20410;-69
2022/03/06 06:27:44;;;;;;;;;;;-0.90;99.90;;;;;;5115022;28;19949;-70
2022/03/06 06:30:09;;;;;;;;;;;-0.70;99.90;;;;;;5115324;28;19923;-71
2022/03/06 06:32:35;;;;;;;;;;;-0.70;99.90;;;;;;5115216;28;19924;-69
2022/03/06 06:35:01;;;;;;;;;;;0.80;99.90;;;;;;5097066;28;19923;-69
2022/03/06 06:37:26;;;;;;;;;;;-0.80;99.90;;;;;;5114964;28;19963;-70
2022/03/06 06:39:52;;;;;;;;;;;0.60;99.90;;;;;;5114823;28;19924;-73
2022/03/06 06:42:17;;;;;;;;;;;-0.90;99.90;;;;;;5114842;28;19923;-69
2022/03/06 06:44:43;;;;;;;;;;;1.00;99.90;;;;;;5115113;28;19924;-70
2022/03/06 06:47:08;;;;;;;;;;;0.90;99.90;;;;;;5114932;28;20386;-69
2022/03/06 06:49:34;;;;;;;;;;;0.40;99.90;;;;;;5114761;28;20002;-72
2022/03/06 06:52:00;;;;;;;;;;;0.60;99.90;;;;;;5114793;28;19923;-71
2022/03/06 06:54:26;;;;;;;;;;;0.70;99.90;;;;;;5114623;28;20336;-74
2022/03/06 06:56:51;;;;;;;;;;;-0.90;99.90;;;;;;5114624;28;19931;-70
2022/03/06 06:59:17;;;;;;;;;;;-0.70;99.90;;;;;;5114472;28;20034;-72
2022/03/06 07:01:42;;;;;;;;;;;-0.90;99.90;;;;;;5114699;28;19931;-69
2022/03/06 07:04:08;;;;;;;;;;;-1.10;99.90;;;;;;5114608;28;20011;-69
2022/03/06 07:06:34;;;;;;;;;;;-0.70;99.90;;;;;;5114541;28;19930;-70
2022/03/06 07:08:59;;;;;;;;;;;-0.20;99.90;;;;;;5114269;28;19924;-72
2022/03/06 07:11:25;;;;;;;;;;;-0.70;99.90;;;;;;5114363;28;19967;-70
2022/03/06 07:13:50;;;;;;;;;;;-0.70;99.90;;;;;;5114174;28;19924;-71
2022/03/06 07:16:16;;;;;;;;;;;-0.70;99.90;;;;;;5114468;28;19924;-70
2022/03/06 07:18:41;;;;;;;;;;;-0.90;99.90;;;;;;5096093;28;19969;-69
2022/03/06 07:21:07;;;;;;;;;;;1.00;99.90;;;;;;5114270;28;19928;-70
2022/03/06 07:23:32;;;;;;;;;;;-0.70;99.90;;;;;;5114251;28;19989;-69
2022/03/06 07:25:58;;;;;;;;;;;-0.60;99.90;;;;;;5114157;28;19924;-71
2022/03/06 07:28:24;;;;;;;;;;;1.00;99.90;;;;;;5114192;28;19924;-69
2022/03/06 07:30:49;;;;;;;;;;;-0.60;99.90;;;;;;5130578;27;19931;-69
2022/03/06 07:33:15;;;;;;;;;;;-0.50;99.90;;;;;;5114351;28;20438;-72
2022/03/06 07:35:41;;;;;;;;;;;0.50;99.90;;;;;;5096205;28;19924;-69
2022/03/06 07:38:06;;;;;;;;;;;-0.50;99.90;;;;;;5114150;28;19924;-69
2022/03/06 07:40:32;;;;;;;;;;;-0.40;99.90;;;;;;5114000;28;20308;-70
2022/03/06 07:42:57;;;;;;;;;;;-0.30;99.90;;;;;;5096096;28;19967;-72
2022/03/06 07:45:23;;;;;;;;;;;0.50;99.90;;;;;;5113882;28;19984;-70
2022/03/06 07:47:49;;;;;;;;;;;0.10;99.90;;;;;;5095984;28;20027;-72
2022/03/06 07:50:20;;;;;;;;;;;0.00;99.90;;;;;;5128646;28;19969;-72
2022/03/06 07:52:46;;;;;;;;;;;0.00;99.90;;;;;;5112560;28;19924;-72
2022/03/06 07:55:13;;;;;;;;;;;0.00;99.90;;;;;;5113816;28;19930;-70
2022/03/06 07:57:38;;;;;;;;;;;0.10;99.90;;;;;;5113809;28;19931;-70
2022/03/06 08:00:05;;;;;;;;;;;0.90;99.90;;;;;;5095525;28;19924;-71
2022/03/06 08:02:31;;;;;;;;;;;0.30;99.90;;;;;;5114143;28;19924;-70
2022/03/06 08:04:56;;;;;;;;;;;1.40;99.90;;;;;;5113974;28;19924;-70
2022/03/06 08:07:22;;;;;;;;;;;0.80;99.90;;;;;;5129637;28;20383;-70
2022/03/06 08:09:47;;;;;;;;;;;1.70;99.90;;;;;;5095920;28;19935;-73
2022/03/06 08:12:13;;;;;;;;;;;0.50;99.90;;;;;;5112749;28;20283;-70
2022/03/06 08:14:38;;;;;;;;;;;1.50;99.90;;;;;;5113599;28;19923;-70
2022/03/06 08:17:04;;;;;;;;;;;2.10;99.90;;;;;;5112129;28;19931;-70
2022/03/06 08:19:30;;;;;;;;;;;2.40;99.90;;;;;;5113448;28;19927;-70
2022/03/06 08:21:55;;;;;;;;;;;2.20;99.90;;;;;;5095992;28;19924;-70
2022/03/06 08:24:21;;;;;;;;;;;1.20;99.90;;;;;;5113748;28;19945;-70
2022/03/06 08:26:47;;;;;;;;;;;2.70;99.90;;;;;;5114497;28;19934;-72
2022/03/06 08:29:12;;;;;;;;;;;1.00;99.90;;;;;;5117430;28;20338;-70
2022/03/06 08:31:38;;;;;;;;;;;2.40;99.90;;;;;;5117371;28;20355;-70
2022/03/06 08:34:04;;;;;;;;;;;1.80;99.90;;;;;;5117555;28;20302;-71
2022/03/06 08:36:31;;;;;;;;;;;2.20;99.90;;;;;;5098894;28;20383;-72
2022/03/06 08:38:56;;;;;;;;;;;0.40;99.90;;;;;;5117321;28;19924;-71
2022/03/06 08:41:22;;;;;;;;;;;1.30;99.90;;;;;;5117194;28;19946;-70
2022/03/06 08:43:48;;;;;;;;;;;1.40;99.90;;;;;;5099021;28;19924;-70
2022/03/06 08:46:13;;;;;;;;;;;1.50;99.90;;;;;;5117042;28;20279;-72
2022/03/06 08:48:39;;;;;;;;;;;3.00;99.90;;;;;;5117382;28;19924;-70
2022/03/06 08:51:05;;;;;;;;;;;1.70;99.90;;;;;;5117104;28;19923;-71
2022/03/06 08:53:31;;;;;;;;;;;2.60;99.90;;;;;;5099183;28;20295;-70
2022/03/06 08:55:56;;;;;;;;;;;2.40;99.90;;;;;;5099076;28;19924;-70
2022/03/06 08:58:22;;;;;;;;;;;2.70;99.90;;;;;;5116932;28;19924;-72
2022/03/06 09:00:47;;;;;;;;;;;1.90;99.90;;;;;;5114790;28;20107;-73
2022/03/06 09:03:13;;;;;;;;;;;3.30;99.90;;;;;;5098391;28;19924;-69
2022/03/06 09:05:40;;;;;;;;;;;1.90;99.90;;;;;;5117053;28;20000;-73
2022/03/06 09:08:07;;;;;;;;;;;2.90;99.90;;;;;;5098317;28;19928;-71
2022/03/06 09:10:34;;;;;;;;;;;2.00;99.90;;;;;;5098727;28;20383;-72
2022/03/06 09:13:00;;;;;;;;;;;2.10;99.90;;;;;;5132784;27;19924;-73
2022/03/06 09:15:26;;;;;;;;;;;2.10;99.90;;;;;;5115368;28;19930;-72
2022/03/06 09:17:52;;;;;;;;;;;2.20;99.90;;;;;;5116725;28;19971;-69
2022/03/06 09:20:17;;;;;;;;;;;0.70;99.90;;;;;;5116194;28;19971;-70
2022/03/06 09:22:43;;;;;;;;;;;2.20;99.90;;;;;;5116735;28;19977;-70
2022/03/06 09:25:09;;;;;;;;;;;2.30;99.90;;;;;;5116776;28;20014;-68
2022/03/06 09:27:35;;;;;;;;;;;2.30;99.90;;;;;;5116329;28;19924;-70
2022/03/06 09:30:01;;;;;;;;;;;2.40;99.90;;;;;;5116278;28;20015;-74
2022/03/06 09:32:27;;;;;;;;;;;2.70;99.90;;;;;;5116089;28;20019;-70
2022/03/06 09:34:52;;;;;;;;;;;2.50;99.90;;;;;;5116389;28;19930;-69
2022/03/06 09:37:18;;;;;;;;;;;4.40;99.90;;;;;;5116219;28;20014;-71
2022/03/06 09:39:43;;;;;;;;;;;2.70;99.90;;;;;;5130833;27;19931;-73
2022/03/06 09:42:09;;;;;;;;;;;2.60;99.90;;;;;;5116091;28;19923;-72
2022/03/06 09:44:36;;;;;;;;;;;2.90;99.90;;;;;;5098181;28;19931;-70
2022/03/06 09:47:04;;;;;;;;;;;2.70;99.90;;;;;;5115876;28;19924;-73
2022/03/06 09:49:30;;;;;;;;;;;2.70;99.90;;;;;;5115885;28;19996;-70
2022/03/06 09:51:56;;;;;;;;;;;2.80;99.90;;;;;;5098045;28;20378;-70
2022/03/06 09:54:22;;;;;;;;;;;2.80;99.90;;;;;;5115938;28;20010;-71
2022/03/06 09:56:47;;;;;;;;;;;2.90;99.90;;;;;;5115867;28;20354;-70
2022/03/06 09:59:13;;;;;;;;;;;3.90;99.90;;;;;;5115702;28;19999;-73
2022/03/06 10:01:38;;;;;;;;;;;3.00;99.90;;;;;;5131889;27;19924;-70
2022/03/06 10:04:25;;;;;;;;;;;3.80;99.90;;;;;;5114893;28;21309;-73
2022/03/06 10:07:01;;;;;;;;;;;3.20;99.90;;;;;;5131252;27;19930;-69
2022/03/06 10:09:27;;;;;;;;;;;3.20;99.90;;;;;;5131925;27;20285;-71
2022/03/06 10:11:54;;;;;;;;;;;3.20;99.80;;;;;;5099747;27;19929;-69
2022/03/06 10:14:38;;;;;;;;;;;4.00;99.90;;;;;;5127346;27;20010;-70
2022/03/06 10:17:22;;;;;;;;;;;3.30;99.90;;;;;;5136039;27;20014;-69
2022/03/06 10:19:48;;;;;;;;;;;3.40;99.90;;;;;;5146676;27;20382;-69
2022/03/06 10:22:14;;;;;;;;;;;3.50;99.90;;;;;;5115185;28;19924;-69
2022/03/06 10:24:46;;;;;;;;;;;3.50;99.90;;;;;;5115080;28;19927;-70
2022/03/06 10:27:12;;;;;;;;;;;3.60;99.90;;;;;;5115031;28;20353;-72
2022/03/06 10:29:37;;;;;;;;;;;4.60;99.90;;;;;;5097357;28;19927;-67
2022/03/06 10:32:05;;;;;;;;;;;4.50;99.90;;;;;;5097044;28;20393;-71
2022/03/06 10:34:35;;;;;;;;;;;3.70;99.40;;;;;;5080260;28;19982;-71
2022/03/06 10:37:01;;;;;;;;;;;3.80;99.30;;;;;;5114808;28;19927;-71
2022/03/06 10:39:27;;;;;;;;;;;3.80;96.20;;;;;;5096599;28;19928;-73
2022/03/06 10:41:54;;;;;;;;;;;3.80;99.40;;;;;;5096926;28;19934;-73
2022/03/06 10:44:20;;;;;;;;;;;2.60;98.10;;;;;;5096935;28;19970;-71
2022/03/06 10:46:59;;;;;;;;;;;4.40;98.10;;;;;;5114102;28;19924;-69
2022/03/06 10:49:28;;;;;;;;;;;3.90;96.40;;;;;;5114258;28;19924;-72
2022/03/06 10:51:56;;;;;;;;;;;4.00;95.40;;;;;;5096219;28;20023;-69
2022/03/06 10:54:22;;;;;;;;;;;4.00;94.70;;;;;;5130470;27;19931;-69
2022/03/06 10:56:50;;;;;;;;;;;4.00;94.50;;;;;;5096494;28;19923;-70
2022/03/06 10:59:18;;;;;;;;;;;4.10;98.20;;;;;;5095779;28;19932;-73
2022/03/06 11:01:46;;;;;;;;;;;4.20;98.80;;;;;;5114320;28;19924;-69
2022/03/06 11:04:13;;;;;;;;;;;4.20;99.20;;;;;;5114426;28;19924;-71
2022/03/06 11:06:40;;;;;;;;;;;4.20;95.50;;;;;;5113943;28;19930;-69
2022/03/06 11:09:09;;;;;;;;;;;4.30;97.40;;;;;;5096294;28;19923;-74
2022/03/06 11:11:36;;;;;;;;;;;4.30;96.50;;;;;;5114484;28;20310;-70
2022/03/06 11:14:02;;;;;;;;;;;4.40;97.20;;;;;;5096347;28;20026;-72
2022/03/06 11:16:30;;;;;;;;;;;4.40;99.90;;;;;;5114098;28;19947;-74
2022/03/06 11:18:56;;;;;;;;;;;4.50;97.70;;;;;;5130083;27;19965;-70
2022/03/06 11:21:24;;;;;;;;;;;4.70;99.90;;;;;;5095105;28;19930;-72
2022/03/06 11:23:51;;;;;;;;;;;4.60;99.00;;;;;;5113872;28;19924;-70
2022/03/06 11:26:23;;;;;;;;;;;4.70;96.30;;;;;;5114375;28;20181;-70
2022/03/06 11:29:07;;;;;;;;;;;4.70;95.60;;;;;;5114049;28;19928;-72
2022/03/06 11:31:44;;;;;;;;;;;4.70;99.80;;;;;;5113857;28;19924;-72
2022/03/06 11:34:11;;;;;;;;;;;4.80;94.70;;;;;;5095861;28;19924;-70
2022/03/06 11:36:48;;;;;;;;;;;4.90;92.00;;;;;;5113755;28;20393;-70
2022/03/06 11:39:15;;;;;;;;;;;4.90;93.30;;;;;;5095593;28;19924;-70
2022/03/06 11:41:42;;;;;;;;;;;4.90;94.80;;;;;;5079269;28;20014;-71
2022/03/06 11:44:27;;;;;;;;;;;4.90;96.30;;;;;;5095604;28;19928;-70
2022/03/06 11:46:55;;;;;;;;;;;5.00;90.40;;;;;;5113721;28;20294;-70
2022/03/06 11:49:31;;;;;;;;;;;5.10;92.40;;;;;;5095722;28;19931;-70
2022/03/06 11:51:58;;;;;;;;;;;5.10;92.10;;;;;;5113639;28;19936;-70
2022/03/06 11:54:24;;;;;;;;;;;5.20;92.60;;;;;;5113624;28;20014;-70
2022/03/06 11:56:52;;;;;;;;;;;5.20;95.50;;;;;;5079014;28;20006;-70
2022/03/06 11:59:19;;;;;;;;;;;5.10;88.20;;;;;;5113341;28;19930;-70
2022/03/06 12:01:55;;;;;;;;;;;5.20;93.20;;;;;;5096446;28;20370;-69
2022/03/06 12:04:22;;;;;;;;;;;5.20;94.50;;;;;;5099876;28;19923;-69
2022/03/06 12:06:53;;;;;;;;;;;5.30;96.80;;;;;;5117500;28;19928;-70
2022/03/06 12:09:23;;;;;;;;;;;5.40;92.60;;;;;;5099319;28;19928;-74
2022/03/06 12:11:51;;;;;;;;;;;5.40;93.30;;;;;;5100287;28;19923;-70
2022/03/06 12:14:19;;;;;;;;;;;5.30;92.20;;;;;;5099589;28;19928;-70
2022/03/06 12:17:03;;;;;;;;;;;5.30;95.20;;;;;;5117586;28;19924;-70
2022/03/06 12:19:30;;;;;;;;;;;5.40;98.10;;;;;;5099387;28;19950;-73
2022/03/06 12:22:13;;;;;;;;;;;6.10;99.00;;;;;;5117410;28;19931;-69
2022/03/06 12:24:40;;;;;;;;;;;5.40;94.80;;;;;;5117127;28;19924;-73
2022/03/06 12:27:13;;;;;;;;;;;5.60;95.70;;;;;;5117574;28;20030;-70
2022/03/06 12:29:44;;;;;;;;;;;5.40;92.60;;;;;;5117305;28;19924;-71
2022/03/06 12:32:26;;;;;;;;;;;5.50;93.10;;;;;;5117328;28;19924;-74
2022/03/06 12:34:59;;;;;;;;;;;5.50;98.50;;;;;;5117027;28;19929;-70
2022/03/06 12:37:32;;;;;;;;;;;5.50;99.90;;;;;;5116956;28;19996;-70
2022/03/06 12:39:59;;;;;;;;;;;5.50;99.90;;;;;;5116861;28;19963;-73
2022/03/06 12:42:28;;;;;;;;;;;5.50;99.90;;;;;;5098990;28;19931;-70
2022/03/06 12:44:55;;;;;;;;;;;5.50;99.90;;;;;;5098838;28;20466;-71
2022/03/06 12:47:21;;;;;;;;;;;5.50;99.90;;;;;;5103897;27;20423;-72
2022/03/06 12:49:51;;;;;;;;;;;5.50;97.90;;;;;;5123542;27;19927;-71
2022/03/06 12:52:18;;;;;;;;;;;5.50;98.90;;;;;;5134677;27;19923;-70
2022/03/06 12:54:49;;;;;;;;;;;7.30;99.90;;;;;;5099193;28;19924;-72
2022/03/06 12:57:15;;;;;;;;;;;5.40;99.90;;;;;;5085195;27;20069;-71
2022/03/06 12:59:43;;;;;;;;;;;5.30;99.90;;;;;;5099452;27;19966;-71
2022/03/06 13:02:10;;;;;;;;;;;5.30;99.90;;;;;;5083184;27;20020;-71
2022/03/06 13:04:36;;;;;;;;;;;5.40;99.90;;;;;;5133867;27;20019;-71
2022/03/06 13:07:05;;;;;;;;;;;5.40;99.90;;;;;;5106580;28;19923;-71
2022/03/06 13:09:34;;;;;;;;;;;5.40;99.90;;;;;;5124695;27;19939;-71
2022/03/06 13:12:01;;;;;;;;;;;5.50;99.90;;;;;;5115851;28;19930;-70
2022/03/06 13:14:31;;;;;;;;;;;5.50;99.50;;;;;;5125117;27;20348;-73
2022/03/06 13:16:58;;;;;;;;;;;5.60;99.90;;;;;;5118363;27;20336;-74
2022/03/06 13:19:23;;;;;;;;;;;5.70;98.60;;;;;;5102438;28;19928;-71
2022/03/06 13:21:49;;;;;;;;;;;6.20;99.90;;;;;;5116302;28;19969;-70
2022/03/06 13:24:15;;;;;;;;;;;5.60;99.90;;;;;;5119054;27;20068;-70
2022/03/06 13:26:42;;;;;;;;;;;5.60;99.90;;;;;;5099445;28;19933;-70
2022/03/06 13:29:12;;;;;;;;;;;5.60;99.90;;;;;;5106556;27;19927;-73
2022/03/06 13:31:42;;;;;;;;;;;5.70;99.90;;;;;;5116019;28;19982;-72
2022/03/06 13:34:09;;;;;;;;;;;5.80;99.90;;;;;;5116365;27;19971;-69
2022/03/06 13:36:39;;;;;;;;;;;5.70;99.90;;;;;;5116872;27;19924;-73
2022/03/06 13:39:07;;;;;;;;;;;5.70;99.90;;;;;;5096404;27;19932;-72
2022/03/06 13:41:33;;;;;;;;;;;5.70;99.90;;;;;;5133414;27;19927;-70
2022/03/06 13:43:59;;;;;;;;;;;5.60;99.90;;;;;;5134716;27;19923;-70
2022/03/06 13:46:26;;;;;;;;;;;5.60;99.90;;;;;;5136229;27;20290;-70
2022/03/06 13:49:06;;;;;;;;;;;5.70;99.90;;;;;;5128671;27;20355;-70
2022/03/06 13:51:41;;;;;;;;;;;5.70;99.90;;;;;;5094990;28;19969;-71
2022/03/06 13:54:07;;;;;;;;;;;5.80;99.90;;;;;;5077205;28;19931;-71
2022/03/06 13:56:34;;;;;;;;;;;5.90;99.90;;;;;;5095221;28;19928;-70
2022/03/06 13:59:00;;;;;;;;;;;5.90;99.90;;;;;;5108576;27;19930;-71
2022/03/06 14:01:27;;;;;;;;;;;6.20;99.90;;;;;;5103554;27;19923;-71
2022/03/06 14:04:00;;;;;;;;;;;5.90;99.90;;;;;;5134040;27;20302;-72
2022/03/06 14:06:32;;;;;;;;;;;5.90;99.90;;;;;;5097233;28;20287;-72
2022/03/06 14:08:59;;;;;;;;;;;5.90;99.90;;;;;;5115098;28;20014;-73
2022/03/06 14:11:29;;;;;;;;;;;5.80;99.90;;;;;;5080399;28;19973;-74
2022/03/06 14:13:55;;;;;;;;;;;5.90;99.90;;;;;;5079983;28;19924;-71
2022/03/06 14:16:21;;;;;;;;;;;5.90;99.90;;;;;;5096998;28;19935;-74
2022/03/06 14:18:51;;;;;;;;;;;5.90;99.90;;;;;;5115235;28;19927;-73
2022/03/06 14:21:21;;;;;;;;;;;5.80;99.90;;;;;;5115103;28;20344;-72
2022/03/06 14:23:57;;;;;;;;;;;5.80;99.90;;;;;;5114824;28;19969;-70
2022/03/06 14:26:28;;;;;;;;;;;5.70;99.90;;;;;;5114729;28;19923;-71
2022/03/06 14:28:55;;;;;;;;;;;5.80;99.90;;;;;;5096912;28;19924;-72